Time;durP1;ratioP1;P1;durP2;ratioP2;P2;SDS_P1;SDS_P2;PMS_P1;PMS_P2;Temp;Humidity;BMP_temperature;BMP_pressure;BME280_temperature;BME280_humidity;BME280_pressure;Samples;Min_cycle;Max_cycle;Signal;HPM_P1;HPM_P2
2023/03/16 00:00:35;;;;;;;4.80;0.60;;;3.30;78.20;;;;;;4999008;28;88183;-69
2023/03/16 00:03:02;;;;;;;3.55;0.60;;;3.30;77.70;;;;;;4982356;28;88607;-73
2023/03/16 00:05:28;;;;;;;2.53;0.60;;;3.20;79.10;;;;;;4990663;28;87122;-74
2023/03/16 00:07:53;;;;;;;2.60;0.40;;;3.20;79.10;;;;;;4968788;28;89039;-74
2023/03/16 00:10:26;;;;;;;4.82;0.63;;;3.20;79.60;;;;;;4995960;28;87929;-72
2023/03/16 00:12:53;;;;;;;2.53;0.60;;;3.20;79.50;;;;;;4999956;28;87511;-74
2023/03/16 00:15:19;;;;;;;5.22;0.40;;;3.20;79.90;;;;;;4990715;28;87196;-73
2023/03/16 00:17:47;;;;;;;2.72;0.30;;;3.20;79.70;;;;;;4978377;28;88241;-72
2023/03/16 00:20:14;;;;;;;3.78;0.50;;;3.10;79.80;;;;;;4979135;28;87438;-74
2023/03/16 00:22:40;;;;;;;2.08;0.50;;;3.20;79.60;;;;;;4970624;28;87504;-74
2023/03/16 00:25:07;;;;;;;3.03;0.43;;;3.20;79.30;;;;;;4982874;28;87158;-72
2023/03/16 00:27:33;;;;;;;3.85;0.22;;;3.10;79.30;;;;;;4983703;28;90574;-75
2023/03/16 00:30:01;;;;;;;2.45;0.32;;;3.10;79.90;;;;;;4986386;28;88261;-72
2023/03/16 00:32:30;;;;;;;1.67;0.28;;;3.10;80.10;;;;;;4975659;28;87276;-71
2023/03/16 00:34:56;;;;;;;4.60;0.30;;;3.00;80.10;;;;;;4975119;28;87514;-71
2023/03/16 00:37:24;;;;;;;2.20;0.22;;;3.00;80.20;;;;;;4981631;28;88190;-75
2023/03/16 00:39:50;;;;;;;4.55;0.30;;;3.00;80.10;;;;;;4986118;28;87841;-71
2023/03/16 00:42:17;;;;;;;3.05;0.20;;;3.00;79.60;;;;;;4977802;28;87126;-74
2023/03/16 00:44:43;;;;;;;3.35;0.30;;;3.00;80.00;;;;;;4973440;28;86805;-72
2023/03/16 00:47:13;;;;;;;3.17;0.10;;;3.00;80.10;;;;;;4978361;28;87556;-72
2023/03/16 00:49:41;;;;;;;1.63;0.25;;;3.00;80.10;;;;;;4974413;28;88010;-72
2023/03/16 00:52:08;;;;;;;1.58;0.25;;;3.00;80.10;;;;;;4969295;28;88010;-73
2023/03/16 00:54:35;;;;;;;2.80;0.17;;;3.00;80.20;;;;;;4976329;28;87108;-76
2023/03/16 00:57:01;;;;;;;3.72;0.22;;;2.90;80.70;;;;;;4971015;28;89035;-71
2023/03/16 00:59:28;;;;;;;1.60;0.10;;;2.90;81.00;;;;;;4975213;28;87668;-72
2023/03/16 01:01:54;;;;;;;1.63;0.20;;;2.90;81.20;;;;;;4974794;28;87462;-72
2023/03/16 01:04:21;;;;;;;1.73;0.17;;;2.80;82.00;;;;;;4971018;28;88762;-71
2023/03/16 01:06:48;;;;;;;1.23;0.15;;;2.80;81.60;;;;;;4978502;28;87507;-74
2023/03/16 01:09:13;;;;;;;1.80;0.10;;;2.80;81.70;;;;;;4978678;28;87857;-71
2023/03/16 01:11:43;;;;;;;3.05;0.15;;;2.70;81.80;;;;;;4986884;28;87366;-74
2023/03/16 01:14:09;;;;;;;0.90;0.20;;;2.70;82.10;;;;;;4981762;28;87113;-73
2023/03/16 01:16:35;;;;;;;3.08;0.20;;;2.60;82.40;;;;;;4981351;28;88344;-73
2023/03/16 01:19:01;;;;;;;1.45;0.10;;;2.60;82.50;;;;;;4973447;28;89007;-71
2023/03/16 01:21:27;;;;;;;1.30;0.10;;;2.60;82.80;;;;;;4997140;28;88644;-74
2023/03/16 01:23:53;;;;;;;1.00;0.10;;;2.50;83.00;;;;;;4978762;28;87455;-72
2023/03/16 01:26:19;;;;;;;1.95;0.10;;;2.40;83.50;;;;;;4977832;28;87402;-71
2023/03/16 01:28:45;;;;;;;1.00;0.10;;;2.40;83.70;;;;;;4977550;28;87683;-73
2023/03/16 01:31:13;;;;;;;1.40;0.10;;;2.40;83.80;;;;;;4974569;28;87502;-72
2023/03/16 01:33:40;;;;;;;1.67;0.20;;;2.40;84.10;;;;;;4988327;28;86557;-74
2023/03/16 01:36:14;;;;;;;1.10;0.20;;;2.30;84.40;;;;;;4976817;28;88630;-73
2023/03/16 01:38:41;;;;;;;1.35;0.13;;;2.30;84.50;;;;;;4992622;28;87548;-74
2023/03/16 01:41:07;;;;;;;1.50;0.20;;;2.30;84.60;;;;;;4997758;28;88798;-73
2023/03/16 01:43:36;;;;;;;1.63;0.20;;;2.30;84.30;;;;;;4982795;28;87473;-71
2023/03/16 01:46:04;;;;;;;1.52;0.20;;;2.20;84.70;;;;;;4974890;28;88541;-72
2023/03/16 01:48:36;;;;;;;1.52;0.20;;;2.20;84.60;;;;;;4964374;28;91168;-71
2023/03/16 01:51:12;;;;;;;1.55;0.10;;;2.20;85.00;;;;;;4978338;28;87164;-72
2023/03/16 01:53:40;;;;;;;3.88;0.20;;;2.20;84.60;;;;;;4966285;28;87506;-73
2023/03/16 01:56:09;;;;;;;1.42;0.20;;;2.20;84.70;;;;;;4995624;28;87353;-72
2023/03/16 01:58:36;;;;;;;7.25;0.20;;;2.20;84.90;;;;;;4993503;28;87960;-71
2023/03/16 02:01:03;;;;;;;1.77;0.20;;;2.20;85.00;;;;;;4989624;28;87490;-71
2023/03/16 02:03:33;;;;;;;2.72;0.32;;;2.10;85.00;;;;;;4979780;28;87783;-71
2023/03/16 02:06:14;;;;;;;0.80;0.13;;;2.10;85.20;;;;;;4964529;28;88618;-73
2023/03/16 02:08:41;;;;;;;1.35;0.10;;;2.10;85.10;;;;;;4996450;28;88956;-72
2023/03/16 02:11:08;;;;;;;1.73;0.10;;;2.10;85.10;;;;;;4997998;28;87656;-70
2023/03/16 02:13:35;;;;;;;2.90;0.10;;;2.10;85.10;;;;;;4987484;28;87758;-70
2023/03/16 02:16:05;;;;;;;1.13;0.15;;;2.10;85.30;;;;;;4994611;28;88045;-72
2023/03/16 02:18:31;;;;;;;2.25;0.10;;;2.00;85.30;;;;;;4978231;28;87200;-71
2023/03/16 02:21:16;;;;;;;0.77;0.10;;;2.00;84.90;;;;;;4981761;28;87062;-71
2023/03/16 02:23:43;;;;;;;2.42;0.20;;;2.10;85.10;;;;;;4980351;28;86707;-70
2023/03/16 02:26:33;;;;;;;1.00;0.10;;;2.10;85.10;;;;;;4995114;28;87338;-73
2023/03/16 02:29:24;;;;;;;1.77;0.10;;;2.00;84.90;;;;;;4982976;28;87739;-72
2023/03/16 02:31:51;;;;;;;2.50;0.10;;;2.00;84.90;;;;;;4983171;28;88619;-71
2023/03/16 02:34:18;;;;;;;6.65;0.10;;;2.00;84.90;;;;;;4972493;28;87280;-71
2023/03/16 02:36:46;;;;;;;2.50;0.40;;;1.90;85.10;;;;;;4986409;28;89505;-73
2023/03/16 02:39:12;;;;;;;0.85;0.10;;;2.00;85.20;;;;;;4978539;28;87651;-74
2023/03/16 02:41:38;;;;;;;1.27;0.10;;;1.90;85.30;;;;;;4980335;28;87200;-73
2023/03/16 02:44:32;;;;;;;0.60;0.03;;;1.90;85.20;;;;;;4975687;28;87429;-73
2023/03/16 02:47:10;;;;;;;0.90;0.10;;;1.90;85.30;;;;;;4975330;28;87166;-71
2023/03/16 02:49:42;;;;;;;1.00;0.10;;;1.90;85.30;;;;;;4977748;28;91385;-73
2023/03/16 02:52:09;;;;;;;0.60;0.10;;;1.90;85.40;;;;;;4977269;28;87617;-73
2023/03/16 02:54:34;;;;;;;2.15;0.10;;;1.90;85.60;;;;;;4981507;28;87360;-72
2023/03/16 02:57:00;;;;;;;2.08;0.10;;;1.80;85.50;;;;;;4969622;28;89052;-73
2023/03/16 02:59:26;;;;;;;1.50;0.10;;;1.80;85.80;;;;;;4987570;28;89196;-71
2023/03/16 03:01:51;;;;;;;0.90;0.10;;;1.80;86.00;;;;;;4977375;28;86992;-72
2023/03/16 03:04:17;;;;;;;2.10;0.10;;;1.80;85.80;;;;;;4983027;28;88031;-75
2023/03/16 03:06:43;;;;;;;1.20;0.10;;;1.80;86.10;;;;;;4999968;28;88187;-72
2023/03/16 03:09:12;;;;;;;1.48;0.10;;;1.70;86.30;;;;;;4993302;28;89093;-71
2023/03/16 03:11:38;;;;;;;1.45;0.15;;;1.70;86.70;;;;;;4981725;28;87479;-70
2023/03/16 03:14:04;;;;;;;0.95;0.17;;;1.70;86.60;;;;;;4976444;28;86448;-71
2023/03/16 03:16:30;;;;;;;3.08;0.20;;;1.60;86.90;;;;;;4990907;28;88216;-72
2023/03/16 03:18:57;;;;;;;2.47;0.20;;;1.60;87.00;;;;;;5000072;28;87966;-75
2023/03/16 03:21:23;;;;;;;2.25;0.20;;;1.60;87.00;;;;;;4999712;28;88307;-73
2023/03/16 03:23:49;;;;;;;0.80;0.10;;;1.60;87.20;;;;;;4996292;28;87707;-72
2023/03/16 03:26:15;;;;;;;1.75;0.10;;;1.60;87.30;;;;;;4999716;28;87673;-72
2023/03/16 03:28:42;;;;;;;4.32;0.13;;;1.60;87.30;;;;;;4991547;28;87465;-71
2023/03/16 03:31:14;;;;;;;1.60;0.20;;;1.50;87.60;;;;;;4970963;28;87483;-71
2023/03/16 03:33:40;;;;;;;0.85;0.10;;;1.50;87.40;;;;;;4980102;28;87747;-70
2023/03/16 03:36:06;;;;;;;1.23;0.10;;;1.50;87.70;;;;;;4989909;28;87617;-72
2023/03/16 03:38:31;;;;;;;1.45;0.20;;;1.40;87.70;;;;;;4999363;28;86918;-71
2023/03/16 03:40:58;;;;;;;1.88;0.10;;;1.50;87.90;;;;;;5000198;28;87488;-72
2023/03/16 03:43:24;;;;;;;1.40;0.10;;;1.50;87.90;;;;;;4989899;28;87839;-71
2023/03/16 03:45:58;;;;;;;2.15;0.10;;;1.40;88.10;;;;;;4982137;28;89126;-71
2023/03/16 03:48:24;;;;;;;1.95;0.20;;;1.40;88.00;;;;;;4974656;28;88697;-72
2023/03/16 03:50:50;;;;;;;3.83;0.22;;;1.40;87.80;;;;;;4979831;28;87372;-72
2023/03/16 03:53:16;;;;;;;2.38;0.20;;;1.40;88.00;;;;;;4979388;28;88198;-72
2023/03/16 03:55:42;;;;;;;1.58;0.20;;;1.40;88.00;;;;;;4979712;28;87408;-71
2023/03/16 03:58:08;;;;;;;1.88;0.22;;;1.30;88.40;;;;;;4980309;28;87184;-72
2023/03/16 04:00:34;;;;;;;1.02;0.10;;;1.30;88.20;;;;;;4984588;28;88612;-74
2023/03/16 04:03:00;;;;;;;1.02;0.20;;;1.30;88.20;;;;;;4977325;28;86633;-72
2023/03/16 04:05:26;;;;;;;3.20;0.20;;;1.30;88.20;;;;;;4968762;28;87539;-72
2023/03/16 04:07:56;;;;;;;2.13;0.20;;;1.30;88.20;;;;;;4977496;28;90252;-71
2023/03/16 04:10:24;;;;;;;2.30;0.30;;;1.30;88.00;;;;;;4977972;28;88401;-73
2023/03/16 04:12:50;;;;;;;2.25;0.20;;;1.30;88.10;;;;;;4977948;28;87341;-71
2023/03/16 04:15:15;;;;;;;4.38;0.20;;;1.30;88.20;;;;;;4999412;28;87963;-74
2023/03/16 04:17:41;;;;;;;1.10;0.20;;;1.30;88.50;;;;;;4998271;28;87843;-74
2023/03/16 04:20:13;;;;;;;1.75;0.20;;;1.20;88.80;;;;;;4998126;28;87480;-73
2023/03/16 04:22:41;;;;;;;1.77;0.20;;;1.20;89.00;;;;;;4961662;28;87153;-70
2023/03/16 04:25:08;;;;;;;1.27;0.20;;;1.20;89.10;;;;;;4974775;28;87930;-72
2023/03/16 04:27:35;;;;;;;1.45;0.20;;;1.20;89.10;;;;;;4974711;28;87631;-71
2023/03/16 04:30:12;;;;;;;1.88;0.30;;;1.20;88.90;;;;;;4985042;28;88387;-72
2023/03/16 04:32:38;;;;;;;;;;;1.10;88.90;;;;;;4966354;28;87478;-71
2023/03/16 04:35:05;;;;;;;1.50;0.15;;;1.10;88.90;;;;;;4979674;28;88205;-73
2023/03/16 04:37:30;;;;;;;4.03;0.20;;;1.10;89.20;;;;;;4969575;28;87722;-71
2023/03/16 04:39:56;;;;;;;2.28;0.10;;;1.10;89.20;;;;;;4985171;28;87227;-71
2023/03/16 04:42:21;;;;;;;1.55;0.20;;;1.10;89.50;;;;;;4995270;28;87242;-72
2023/03/16 04:44:47;;;;;;;2.03;0.20;;;1.10;90.00;;;;;;4983210;28;87670;-71
2023/03/16 04:47:14;;;;;;;4.47;0.20;;;1.10;90.00;;;;;;4976970;28;88470;-73
2023/03/16 04:49:41;;;;;;;3.42;0.20;;;1.10;89.90;;;;;;4978593;28;87446;-72
2023/03/16 04:52:07;;;;;;;2.55;0.30;;;1.10;90.00;;;;;;4979431;28;86714;-70
2023/03/16 04:54:33;;;;;;;3.67;0.30;;;1.10;89.90;;;;;;4973329;28;87732;-70
2023/03/16 04:56:59;;;;;;;1.52;0.20;;;1.20;89.10;;;;;;4978510;28;87674;-73
2023/03/16 04:59:28;;;;;;;2.55;0.40;;;1.30;88.30;;;;;;4977130;28;88428;-70
2023/03/16 05:01:54;;;;;;;1.42;0.25;;;1.30;87.70;;;;;;4978828;28;87564;-70
2023/03/16 05:04:20;;;;;;;1.52;0.20;;;1.30;87.60;;;;;;4979155;28;87536;-73
2023/03/16 05:06:46;;;;;;;2.80;0.22;;;1.30;87.50;;;;;;4961748;28;88410;-70
2023/03/16 05:09:12;;;;;;;2.08;0.40;;;1.30;88.20;;;;;;4973269;28;87348;-71
2023/03/16 05:11:39;;;;;;;1.60;0.20;;;1.40;87.50;;;;;;4977513;28;87478;-70
2023/03/16 05:14:04;;;;;;;1.42;0.17;;;1.30;87.00;;;;;;4973028;28;88741;-73
2023/03/16 05:16:31;;;;;;;5.38;0.20;;;1.40;86.50;;;;;;4998517;28;87559;-73
2023/03/16 05:19:00;;;;;;;1.35;0.28;;;1.40;86.30;;;;;;4998109;28;87051;-71
2023/03/16 05:21:26;;;;;;;1.42;0.20;;;1.40;86.20;;;;;;4986975;28;87805;-73
2023/03/16 05:23:52;;;;;;;1.35;0.20;;;1.40;86.30;;;;;;4978017;28;88562;-73
2023/03/16 05:26:18;;;;;;;2.50;0.30;;;1.40;86.50;;;;;;4996891;28;88777;-71
2023/03/16 05:28:44;;;;;;;1.42;0.20;;;1.40;86.10;;;;;;4987535;28;87357;-72
2023/03/16 05:31:10;;;;;;;2.63;0.30;;;1.40;85.60;;;;;;4960772;28;87591;-73
2023/03/16 05:33:36;;;;;;;2.75;0.22;;;1.50;85.10;;;;;;4976118;28;87625;-72
2023/03/16 05:36:03;;;;;;;1.65;0.30;;;1.50;84.60;;;;;;4986856;28;88724;-69
2023/03/16 05:38:30;;;;;;;2.13;0.25;;;1.50;83.90;;;;;;4981014;28;87539;-71
2023/03/16 05:41:00;;;;;;;2.47;0.20;;;1.60;83.10;;;;;;4970049;28;86978;-72
2023/03/16 05:43:27;;;;;;;1.65;0.28;;;1.70;82.70;;;;;;4967155;28;87331;-70
2023/03/16 05:45:53;;;;;;;2.83;0.50;;;1.70;81.90;;;;;;4964628;28;89089;-70
2023/03/16 05:48:20;;;;;;;3.03;0.20;;;1.80;81.50;;;;;;4963249;28;90136;-74
2023/03/16 05:50:46;;;;;;;8.93;0.30;;;1.80;81.30;;;;;;4962356;28;87853;-72
2023/03/16 05:53:12;;;;;;;1.67;0.30;;;1.80;80.80;;;;;;4973215;28;88635;-71
2023/03/16 05:55:37;;;;;;;2.67;0.22;;;1.90;80.60;;;;;;4966603;28;88196;-72
2023/03/16 05:58:03;;;;;;;2.05;0.30;;;2.00;80.50;;;;;;4969076;28;87608;-72
2023/03/16 06:00:30;;;;;;;6.47;0.30;;;2.10;79.40;;;;;;4971569;28;87569;-71
2023/03/16 06:02:56;;;;;;;2.33;0.38;;;2.10;79.10;;;;;;4972573;28;88629;-70
2023/03/16 06:05:23;;;;;;;3.08;0.30;;;2.20;79.20;;;;;;4962034;28;86530;-73
2023/03/16 06:07:49;;;;;;;3.80;0.40;;;2.30;78.60;;;;;;4965979;28;87427;-70
2023/03/16 06:10:15;;;;;;;5.10;0.40;;;2.40;78.30;;;;;;4974406;28;87607;-72
2023/03/16 06:12:41;;;;;;;4.80;0.50;;;2.70;77.50;;;;;;4967947;28;89536;-70
2023/03/16 06:15:09;;;;;;;2.58;0.50;;;3.60;75.70;;;;;;4972674;28;89285;-70
2023/03/16 06:17:35;;;;;;;4.78;0.57;;;4.90;71.50;;;;;;4969521;28;88144;-70
2023/03/16 06:20:04;;;;;;;3.45;0.47;;;6.10;67.30;;;;;;4961308;28;87491;-71
2023/03/16 06:22:29;;;;;;;4.82;0.80;;;6.90;65.40;;;;;;4968668;28;89582;-72
2023/03/16 06:24:55;;;;;;;4.97;0.73;;;8.10;61.70;;;;;;4959188;28;87810;-73
2023/03/16 06:27:21;;;;;;;5.53;0.65;;;9.10;58.90;;;;;;4969259;28;88349;-72
2023/03/16 06:29:47;;;;;;;2.92;0.63;;;10.10;54.80;;;;;;4978358;28;86494;-71
2023/03/16 06:32:13;;;;;;;5.88;0.60;;;10.90;53.40;;;;;;4968243;28;88678;-75
2023/03/16 06:34:40;;;;;;;2.97;0.55;;;11.50;51.20;;;;;;4971823;28;88386;-73
2023/03/16 06:37:06;;;;;;;4.30;0.55;;;12.20;49.70;;;;;;4970121;28;88406;-73
2023/03/16 06:39:31;;;;;;;4.35;0.57;;;12.80;48.40;;;;;;4978776;28;87552;-73
2023/03/16 06:41:57;;;;;;;3.05;0.60;;;13.00;47.10;;;;;;4980242;28;88838;-71
2023/03/16 06:44:23;;;;;;;1.98;0.40;;;13.50;46.50;;;;;;4962063;28;88850;-73
2023/03/16 06:46:49;;;;;;;2.90;0.85;;;13.90;45.40;;;;;;4955701;28;89142;-73
2023/03/16 06:49:14;;;;;;;2.60;0.50;;;14.20;44.20;;;;;;4955367;28;87821;-74
2023/03/16 06:51:40;;;;;;;4.50;0.40;;;14.30;43.80;;;;;;4949888;28;88729;-72
2023/03/16 06:54:07;;;;;;;4.93;0.38;;;14.50;42.50;;;;;;4961574;28;88211;-70
2023/03/16 06:56:32;;;;;;;2.95;0.50;;;14.90;42.30;;;;;;4983357;28;87181;-76
2023/03/16 06:58:58;;;;;;;5.85;0.50;;;15.30;41.70;;;;;;4970641;28;87998;-74
2023/03/16 07:01:24;;;;;;;6.97;0.50;;;15.50;40.50;;;;;;4975202;28;88611;-73
2023/03/16 07:03:50;;;;;;;2.53;0.50;;;16.00;40.50;;;;;;4978833;28;88829;-73
2023/03/16 07:06:16;;;;;;;2.85;0.40;;;16.50;39.80;;;;;;4970938;28;87363;-73
2023/03/16 07:08:42;;;;;;;3.50;0.70;;;17.30;39.00;;;;;;4970687;28;87446;-72
2023/03/16 07:11:08;;;;;;;6.88;0.65;;;17.30;38.20;;;;;;4971281;28;87524;-72
2023/03/16 07:13:35;;;;;;;6.75;0.80;;;17.70;38.30;;;;;;4977792;28;87841;-72
2023/03/16 07:16:01;;;;;;;2.78;0.30;;;17.30;37.60;;;;;;4968480;28;87457;-74
2023/03/16 07:18:29;;;;;;;2.67;0.40;;;17.50;36.40;;;;;;4978060;28;86597;-72
2023/03/16 07:20:54;;;;;;;4.13;0.20;;;17.90;35.30;;;;;;4970427;28;87607;-78
2023/03/16 07:23:20;;;;;;;1.58;0.30;;;18.50;34.80;;;;;;4970586;28;87964;-71
2023/03/16 07:25:46;;;;;;;3.40;0.45;;;18.50;34.00;;;;;;4976747;28;88541;-72
2023/03/16 07:28:12;;;;;;;2.55;0.28;;;18.90;33.70;;;;;;4969631;28;87496;-74
2023/03/16 07:30:37;;;;;;;3.83;0.20;;;19.70;32.80;;;;;;4975796;28;87476;-73
2023/03/16 07:33:04;;;;;;;1.55;0.30;;;20.40;31.40;;;;;;4976866;28;88850;-72
2023/03/16 07:35:30;;;;;;;1.13;0.20;;;20.90;31.60;;;;;;4982025;28;87496;-71
2023/03/16 07:37:56;;;;;;;2.45;0.50;;;21.30;31.00;;;;;;4971667;28;87498;-72
2023/03/16 07:40:22;;;;;;;1.20;0.32;;;22.10;30.50;;;;;;4974786;28;87346;-74
2023/03/16 07:42:48;;;;;;;1.30;0.52;;;22.80;29.80;;;;;;4972571;28;87531;-72
2023/03/16 07:45:14;;;;;;;2.50;0.55;;;22.60;28.70;;;;;;4976949;28;87142;-72
2023/03/16 07:47:40;;;;;;;1.48;0.52;;;22.50;29.00;;;;;;4980630;28;87265;-71
2023/03/16 07:50:07;;;;;;;0.93;0.32;;;23.00;28.90;;;;;;4973656;28;88394;-72
2023/03/16 07:52:33;;;;;;;5.10;0.55;;;23.40;29.50;;;;;;4980252;28;88145;-74
2023/03/16 07:54:59;;;;;;;1.05;0.68;;;23.80;28.40;;;;;;4979252;28;87582;-74
2023/03/16 07:57:25;;;;;;;1.77;0.50;;;25.20;28.40;;;;;;4999303;28;87505;-72
2023/03/16 07:59:50;;;;;;;1.85;0.50;;;26.20;27.70;;;;;;4982287;28;88413;-73
2023/03/16 08:02:18;;;;;;;1.45;0.52;;;27.00;27.10;;;;;;4965748;28;87423;-70
2023/03/16 08:04:44;;;;;;;2.53;0.52;;;27.30;26.10;;;;;;4976957;28;87286;-74
2023/03/16 08:07:11;;;;;;;1.20;0.63;;;26.50;26.60;;;;;;4967483;28;88061;-73
2023/03/16 08:09:37;;;;;;;3.67;0.40;;;26.00;26.60;;;;;;4963516;28;88036;-73
2023/03/16 08:12:04;;;;;;;1.20;0.70;;;26.00;26.70;;;;;;4967723;28;87929;-73
2023/03/16 08:14:33;;;;;;;1.13;0.65;;;26.10;26.10;;;;;;4963105;28;90014;-73
2023/03/16 08:17:00;;;;;;;2.25;0.60;;;27.00;26.20;;;;;;4964820;28;87866;-72
2023/03/16 08:19:26;;;;;;;1.85;0.57;;;27.80;26.40;;;;;;4972070;28;87688;-71
2023/03/16 08:21:52;;;;;;;1.90;1.23;;;28.50;26.50;;;;;;4973448;28;87238;-73
2023/03/16 08:24:18;;;;;;;2.53;1.15;;;29.60;25.80;;;;;;4974955;28;87659;-73
2023/03/16 08:26:44;;;;;;;2.60;0.57;;;30.20;24.90;;;;;;4966476;28;87900;-71
2023/03/16 08:29:09;;;;;;;2.35;0.93;;;29.80;25.20;;;;;;4977297;28;88393;-73
2023/03/16 08:31:35;;;;;;;1.30;0.95;;;30.40;25.20;;;;;;4971065;28;87974;-72
2023/03/16 08:34:02;;;;;;;1.65;0.55;;;30.40;24.00;;;;;;4975412;28;87455;-74
2023/03/16 08:36:29;;;;;;;2.22;0.95;;;29.50;25.30;;;;;;4971692;28;87320;-71
2023/03/16 08:38:55;;;;;;;1.27;0.73;;;29.60;25.00;;;;;;4966479;28;89373;-73
2023/03/16 08:41:21;;;;;;;1.92;0.73;;;29.40;24.30;;;;;;4967470;28;88259;-71
2023/03/16 08:43:47;;;;;;;2.17;0.70;;;28.80;24.50;;;;;;4968286;28;87249;-70
2023/03/16 08:46:13;;;;;;;1.33;0.68;;;28.50;25.00;;;;;;4972714;28;87485;-73
2023/03/16 08:48:40;;;;;;;3.33;1.38;;;28.90;24.90;;;;;;4965601;28;91564;-72
2023/03/16 08:51:07;;;;;;;2.30;0.88;;;29.50;24.60;;;;;;4977642;28;87788;-73
2023/03/16 08:53:32;;;;;;;2.03;1.13;;;29.70;24.80;;;;;;4969159;28;88345;-75
2023/03/16 08:56:10;;;;;;;4.15;1.20;;;29.80;24.70;;;;;;4965204;28;86791;-72
2023/03/16 08:58:36;;;;;;;4.43;1.20;;;30.30;24.60;;;;;;4961319;28;88487;-73
2023/03/16 09:01:04;;;;;;;2.90;1.20;;;31.60;25.00;;;;;;4968303;28;87899;-73
2023/03/16 09:03:31;;;;;;;2.80;1.10;;;32.80;24.50;;;;;;4963479;28;88357;-69
2023/03/16 09:06:05;;;;;;;3.38;1.15;;;33.00;24.10;;;;;;4960333;28;87542;-72
2023/03/16 09:08:31;;;;;;;1.90;1.02;;;32.70;23.50;;;;;;4962783;28;89217;-73
2023/03/16 09:11:09;;;;;;;6.68;1.27;;;32.70;23.80;;;;;;4968324;28;87824;-73
2023/03/16 09:13:40;;;;;;;5.30;1.33;;;32.50;24.20;;;;;;4965680;28;87363;-70
2023/03/16 09:16:06;;;;;;;3.40;1.77;;;33.30;24.20;;;;;;4967913;28;87433;-72
2023/03/16 09:18:34;;;;;;;2.50;1.50;;;33.30;23.50;;;;;;4962384;28;89141;-73
2023/03/16 09:21:01;;;;;;;2.15;0.93;;;32.90;23.50;;;;;;4967379;28;88332;-75
2023/03/16 09:23:28;;;;;;;4.38;1.27;;;32.50;23.60;;;;;;4963194;28;87221;-71
2023/03/16 09:25:58;;;;;;;2.40;1.35;;;32.60;24.60;;;;;;4978136;28;87600;-73
2023/03/16 09:28:26;;;;;;;5.60;1.42;;;32.90;23.80;;;;;;4970845;28;92018;-71
2023/03/16 09:30:53;;;;;;;1.60;1.27;;;32.70;23.70;;;;;;4977000;28;88199;-74
2023/03/16 09:33:24;;;;;;;5.10;1.67;;;32.20;24.30;;;;;;4977621;28;87217;-71
2023/03/16 09:35:50;;;;;;;3.85;1.58;;;32.30;24.40;;;;;;4981851;28;87398;-72
2023/03/16 09:38:20;;;;;;;2.05;1.42;;;32.50;23.90;;;;;;4971538;28;89025;-71
2023/03/16 09:40:54;;;;;;;1.77;1.25;;;31.90;24.10;;;;;;4973358;28;87754;-70
2023/03/16 09:43:32;;;;;;;1.85;1.13;;;32.00;24.80;;;;;;4962294;28;87357;-72
2023/03/16 09:46:23;;;;;;;2.30;1.98;;;33.10;23.50;;;;;;4971060;28;87009;-76
2023/03/16 09:48:48;;;;;;;1.92;1.65;;;33.50;23.20;;;;;;4964592;28;87716;-74
2023/03/16 09:51:29;;;;;;;2.45;1.23;;;33.80;23.60;;;;;;4969835;28;88482;-72
2023/03/16 09:54:01;;;;;;;2.25;1.15;;;33.20;22.90;;;;;;4969564;28;88359;-73
2023/03/16 09:56:36;;;;;;;1.67;0.75;;;32.40;23.30;;;;;;4974801;28;87619;-71
2023/03/16 09:59:10;;;;;;;3.03;1.15;;;32.50;22.90;;;;;;4960985;28;88110;-73
2023/03/16 10:01:58;;;;;;;1.95;1.38;;;32.80;23.00;;;;;;4973022;28;87858;-72
2023/03/16 10:04:30;;;;;;;2.17;0.98;;;33.20;23.50;;;;;;4970355;28;87571;-72
2023/03/16 10:07:37;;;;;;;1.42;1.08;;;33.30;23.30;;;;;;4962263;28;89000;-71
2023/03/16 10:10:32;;;;;;;1.55;0.90;;;33.40;22.90;;;;;;4965925;28;88122;-72
2023/03/16 10:12:59;;;;;;;4.38;0.85;;;32.60;23.30;;;;;;4959864;28;86572;-73
2023/03/16 10:15:29;;;;;;;1.95;0.95;;;32.10;23.20;;;;;;4967199;28;87386;-70
2023/03/16 10:18:06;;;;;;;2.80;0.98;;;31.70;24.20;;;;;;4968516;28;88221;-76
2023/03/16 10:20:33;;;;;;;1.40;0.80;;;31.60;23.40;;;;;;4967967;28;88422;-77
2023/03/16 10:23:04;;;;;;;5.30;0.85;;;31.40;23.10;;;;;;4968861;28;88376;-73
2023/03/16 10:25:51;;;;;;;2.95;0.90;;;31.10;23.80;;;;;;4965999;28;87563;-71
2023/03/16 10:28:25;;;;;;;1.60;0.77;;;30.20;23.20;;;;;;4971384;28;87552;-73
2023/03/16 10:30:53;;;;;;;1.38;0.50;;;29.40;23.90;;;;;;4964205;28;88159;-72
2023/03/16 10:33:28;;;;;;;1.02;0.40;;;27.80;24.10;;;;;;4968098;28;87561;-70
2023/03/16 10:36:01;;;;;;;1.98;0.50;;;25.80;25.20;;;;;;4966953;28;88204;-73
2023/03/16 10:38:37;;;;;;;1.10;0.28;;;24.30;26.20;;;;;;4971409;28;87458;-72
2023/03/16 10:41:21;;;;;;;1.83;0.13;;;22.90;26.30;;;;;;4969382;28;88080;-69
2023/03/16 10:43:51;;;;;;;0.98;0.20;;;21.00;28.30;;;;;;4965154;28;88458;-72
2023/03/16 10:46:17;;;;;;;1.35;0.20;;;19.50;29.60;;;;;;4969813;28;88425;-71
2023/03/16 10:49:00;;;;;;;1.90;0.20;;;18.70;29.90;;;;;;4973336;28;87544;-72
2023/03/16 10:51:32;;;;;;;2.92;0.20;;;18.10;31.50;;;;;;4967676;28;89482;-71
2023/03/16 10:54:29;;;;;;;1.83;0.20;;;17.70;31.10;;;;;;4963452;28;87905;-73
2023/03/16 10:56:55;;;;;;;1.58;0.10;;;16.80;32.80;;;;;;4969403;28;87672;-73
2023/03/16 10:59:33;;;;;;;4.85;0.20;;;16.70;32.10;;;;;;4976388;28;87375;-73
2023/03/16 11:02:04;;;;;;;5.40;0.20;;;16.80;33.40;;;;;;4968769;28;88721;-72
2023/03/16 11:04:31;;;;;;;2.47;0.20;;;16.60;32.90;;;;;;4974884;28;89242;-74
2023/03/16 11:06:57;;;;;;;0.88;0.03;;;16.50;34.30;;;;;;4962797;28;87312;-72
2023/03/16 11:09:32;;;;;;;3.92;0.10;;;16.40;32.30;;;;;;4974058;28;87833;-75
2023/03/16 11:11:58;;;;;;;2.03;0.10;;;16.60;34.80;;;;;;4967865;28;89428;-73
2023/03/16 11:14:27;;;;;;;1.77;0.20;;;16.80;35.00;;;;;;4975693;28;88792;-72
2023/03/16 11:16:59;;;;;;;1.05;0.15;;;17.10;35.00;;;;;;4973102;28;88732;-73
2023/03/16 11:19:34;;;;;;;0.93;0.10;;;17.10;32.80;;;;;;4986482;28;87804;-71
2023/03/16 11:22:11;;;;;;;0.70;0.10;;;17.00;35.20;;;;;;4973732;28;87888;-71
2023/03/16 11:24:51;;;;;;;1.60;0.20;;;16.90;33.80;;;;;;4970034;28;87289;-71
2023/03/16 11:27:36;;;;;;;1.20;0.10;;;16.80;37.00;;;;;;4978062;28;87468;-72
2023/03/16 11:30:08;;;;;;;2.42;0.13;;;17.10;36.40;;;;;;4979492;28;88367;-74
2023/03/16 11:32:37;;;;;;;6.80;0.10;;;17.30;40.40;;;;;;4974007;28;89598;-73
2023/03/16 11:35:37;;;;;;;1.42;0.30;;;17.40;35.60;;;;;;4979172;28;87228;-72
2023/03/16 11:38:28;;;;;;;2.08;0.47;;;17.30;41.90;;;;;;4973739;28;88434;-71
2023/03/16 11:41:14;;;;;;;1.77;0.32;;;17.00;42.90;;;;;;4974980;28;87092;-73
2023/03/16 11:44:00;;;;;;;3.42;0.32;;;16.80;44.10;;;;;;4974598;28;88624;-72
2023/03/16 11:47:00;;;;;;;1.40;0.22;;;16.70;45.20;;;;;;4972376;28;88280;-73
2023/03/16 11:50:02;;;;;;;5.65;0.30;;;16.40;45.70;;;;;;4971865;28;87273;-71
2023/03/16 11:52:56;;;;;;;2.10;0.43;;;16.20;44.90;;;;;;4966590;28;87482;-71
2023/03/16 11:55:24;;;;;;;1.33;0.30;;;15.80;45.80;;;;;;4968400;28;87523;-72
2023/03/16 11:58:02;;;;;;;1.98;0.40;;;15.70;47.50;;;;;;4967912;28;87901;-72
2023/03/16 12:01:03;;;;;;;1.88;0.32;;;15.60;47.10;;;;;;4971907;28;87134;-73
2023/03/16 12:04:00;;;;;;;3.90;0.47;;;15.50;45.40;;;;;;4966149;28;88852;-71
2023/03/16 12:07:03;;;;;;;1.58;0.28;;;15.40;47.10;;;;;;4972885;28;89085;-73
2023/03/16 12:09:49;;;;;;;2.05;0.30;;;15.30;47.30;;;;;;4970680;28;90925;-71
2023/03/16 12:12:21;;;;;;;4.80;0.30;;;15.30;46.70;;;;;;4974893;28;87515;-70
2023/03/16 12:15:10;;;;;;;1.83;0.40;;;15.20;44.80;;;;;;4961992;28;88153;-72
2023/03/16 12:17:37;;;;;;;2.65;0.30;;;15.10;43.70;;;;;;4957991;28;88191;-73
2023/03/16 12:20:20;;;;;;;3.33;0.47;;;15.00;44.90;;;;;;4974932;28;88711;-74
2023/03/16 12:22:56;;;;;;;3.50;0.20;;;14.90;47.50;;;;;;4967591;28;87793;-72
2023/03/16 12:25:26;;;;;;;0.95;0.20;;;14.90;44.70;;;;;;4963491;28;86511;-69
2023/03/16 12:27:54;;;;;;;2.42;0.20;;;14.90;44.50;;;;;;4973492;28;87973;-72
2023/03/16 12:30:37;;;;;;;4.13;0.32;;;14.80;42.90;;;;;;4976664;28;87849;-69
2023/03/16 12:33:17;;;;;;;1.15;0.28;;;14.60;44.20;;;;;;4969027;28;89136;-70
2023/03/16 12:35:58;;;;;;;0.85;0.22;;;14.60;44.10;;;;;;4971437;28;87454;-72
2023/03/16 12:38:33;;;;;;;1.75;0.25;;;14.70;43.20;;;;;;4970031;28;88373;-70
2023/03/16 12:41:27;;;;;;;1.08;0.22;;;14.70;42.30;;;;;;4972007;28;87940;-71
2023/03/16 12:44:35;;;;;;;0.77;0.15;;;14.80;45.50;;;;;;4965204;28;88770;-70
2023/03/16 12:47:11;;;;;;;1.98;0.20;;;14.80;46.60;;;;;;5016454;28;87540;-70
2023/03/16 12:49:37;;;;;;;1.35;0.20;;;14.90;46.50;;;;;;5012919;28;88775;-72
2023/03/16 12:52:09;;;;;;;2.88;0.20;;;15.00;45.20;;;;;;4983966;28;87508;-69
2023/03/16 12:54:35;;;;;;;1.52;0.20;;;15.10;47.20;;;;;;4970438;28;87586;-71
2023/03/16 12:57:05;;;;;;;2.20;0.10;;;15.20;46.10;;;;;;4970535;28;87470;-70
2023/03/16 12:59:41;;;;;;;;;;;15.10;42.20;;;;;;4971687;28;89229;-72
2023/03/16 13:02:18;;;;;;;0.90;0.20;;;15.10;45.10;;;;;;4969649;28;87691;-73
2023/03/16 13:04:48;;;;;;;2.28;0.30;;;15.20;46.40;;;;;;4959510;28;87158;-73
2023/03/16 13:07:21;;;;;;;1.80;0.20;;;15.30;46.40;;;;;;4964547;28;87127;-71